createdAt,value
2018-04-18T00:00:36.719Z,9.40
2018-04-18T00:03:03.475Z,11.50
2018-04-18T00:05:30.235Z,10.07
2018-04-18T00:07:57.023Z,10.33
2018-04-18T00:10:23.782Z,10.23
2018-04-18T00:12:50.523Z,10.27
2018-04-18T00:15:17.263Z,9.97
2018-04-18T00:17:44.055Z,9.87
2018-04-18T00:20:10.789Z,9.93
2018-04-18T00:22:37.544Z,9.77
2018-04-18T00:25:04.283Z,10.50
2018-04-18T00:27:31.024Z,12.83
2018-04-18T00:29:57.781Z,10.17
2018-04-18T00:32:24.509Z,9.87
2018-04-18T00:34:51.238Z,9.83
2018-04-18T00:37:18.064Z,11.37
2018-04-18T00:39:44.777Z,12.47
2018-04-18T00:42:11.504Z,10.90
2018-04-18T00:44:38.242Z,9.87
2018-04-18T00:47:04.976Z,11.50
2018-04-18T00:49:31.708Z,11.87
2018-04-18T00:51:58.440Z,11.43
2018-04-18T00:54:25.172Z,10.53
2018-04-18T00:56:51.891Z,9.80
2018-04-18T00:59:18.628Z,10.57
2018-04-18T01:01:45.386Z,11.17
2018-04-18T01:04:12.101Z,11.10
2018-04-18T01:06:38.812Z,10.30
2018-04-18T01:09:05.542Z,13.83
2018-04-18T01:11:32.281Z,12.80
2018-04-18T01:13:59.017Z,12.70
2018-04-18T01:16:25.758Z,11.40
2018-04-18T01:18:52.477Z,11.97
2018-04-18T01:21:19.199Z,12.27
2018-04-18T01:23:45.933Z,11.93
2018-04-18T01:26:12.671Z,12.43
2018-04-18T01:28:39.423Z,13.70
2018-04-18T01:31:06.167Z,10.47
2018-04-18T01:33:32.948Z,12.53
2018-04-18T01:35:59.689Z,13.27
2018-04-18T01:38:26.429Z,14.03
2018-04-18T01:40:53.248Z,12.23
2018-04-18T01:43:19.999Z,13.30
2018-04-18T01:45:46.725Z,12.20
2018-04-18T01:48:13.455Z,13.03
2018-04-18T01:50:40.180Z,10.97
2018-04-18T01:53:06.937Z,12.53
2018-04-18T01:55:33.660Z,11.50
2018-04-18T01:58:00.389Z,10.83
2018-04-18T02:00:27.175Z,12.50
2018-04-18T02:02:53.911Z,11.27
2018-04-18T02:05:20.641Z,15.43
2018-04-18T02:07:47.410Z,11.13
2018-04-18T02:10:14.156Z,11.77
2018-04-18T02:12:40.873Z,13.13
2018-04-18T02:15:07.613Z,11.43
2018-04-18T02:17:34.347Z,12.47
2018-04-18T02:20:01.077Z,11.80
2018-04-18T02:22:27.830Z,12.47
2018-04-18T02:24:54.571Z,12.87
2018-04-18T02:27:21.318Z,12.33
2018-04-18T02:29:48.065Z,16.50
2018-04-18T02:32:14.826Z,11.13
2018-04-18T02:34:41.599Z,14.17
2018-04-18T02:37:08.377Z,12.20
2018-04-18T02:39:35.116Z,11.07
2018-04-18T02:42:01.891Z,12.13
2018-04-18T02:44:28.623Z,11.90
2018-04-18T02:46:55.374Z,13.10
2018-04-18T02:49:22.143Z,13.90
2018-04-18T02:51:48.922Z,12.87
2018-04-18T02:54:15.676Z,11.37
2018-04-18T02:56:42.417Z,12.00
2018-04-18T02:59:09.139Z,12.53
2018-04-18T03:01:35.858Z,11.80
2018-04-18T03:04:02.630Z,11.83
2018-04-18T03:06:29.392Z,14.60
2018-04-18T03:08:56.130Z,11.60
2018-04-18T03:11:22.865Z,12.23
2018-04-18T03:13:49.601Z,18.03
2018-04-18T03:16:16.319Z,11.57
2018-04-18T03:18:43.042Z,12.53
2018-04-18T03:21:09.758Z,11.63
2018-04-18T03:23:36.487Z,16.33
2018-04-18T03:26:03.225Z,12.27
2018-04-18T03:28:29.948Z,11.63
2018-04-18T03:30:56.703Z,11.73
2018-04-18T03:33:23.428Z,12.73
2018-04-18T03:35:50.185Z,16.00
2018-04-18T03:38:16.921Z,12.40
2018-04-18T03:40:43.704Z,11.27
2018-04-18T03:43:10.417Z,13.57
2018-04-18T03:45:37.172Z,14.10
2018-04-18T03:48:03.950Z,15.07
2018-04-18T03:50:30.688Z,13.13
2018-04-18T03:52:57.427Z,11.67
2018-04-18T03:55:24.149Z,14.57
2018-04-18T03:57:50.872Z,14.20
2018-04-18T04:00:17.600Z,11.50
2018-04-18T04:02:44.348Z,11.03
2018-04-18T04:05:11.085Z,12.20
2018-04-18T04:07:37.805Z,13.03
2018-04-18T04:10:04.577Z,20.10
2018-04-18T04:12:31.304Z,12.53
2018-04-18T04:14:58.047Z,13.27
2018-04-18T04:17:30.715Z,15.20
2018-04-18T04:20:03.378Z,10.30
2018-04-18T04:22:36.079Z,10.10
2018-04-18T04:25:02.877Z,17.67
2018-04-18T04:27:29.627Z,16.00
2018-04-18T04:29:56.345Z,12.67
2018-04-18T04:32:23.114Z,13.67
2018-04-18T04:34:49.875Z,12.43
2018-04-18T04:37:16.615Z,16.53
2018-04-18T04:39:43.398Z,14.07
2018-04-18T04:42:10.131Z,19.40
2018-04-18T04:44:36.858Z,20.13
2018-04-18T04:47:03.577Z,12.50
2018-04-18T04:49:30.308Z,17.30
2018-04-18T04:51:57.058Z,15.93
2018-04-18T04:54:23.818Z,17.87
2018-04-18T04:56:50.562Z,14.57
2018-04-18T04:59:17.294Z,14.57
2018-04-18T05:01:44.044Z,14.00
2018-04-18T05:04:10.773Z,22.50
2018-04-18T05:06:37.539Z,16.87
2018-04-18T05:09:04.350Z,15.13
2018-04-18T05:11:31.094Z,14.30
2018-04-18T05:13:57.839Z,15.90
2018-04-18T05:16:24.569Z,16.47
2018-04-18T05:18:51.327Z,28.20
2018-04-18T05:21:18.122Z,19.83
2018-04-18T05:23:44.910Z,20.50
2018-04-18T05:26:11.674Z,15.73
2018-04-18T05:28:38.410Z,19.47
2018-04-18T05:31:05.180Z,16.53
2018-04-18T05:33:31.919Z,19.33
2018-04-18T05:35:58.658Z,16.27
2018-04-18T05:38:25.460Z,16.67
2018-04-18T05:40:52.208Z,16.90
2018-04-18T05:43:18.950Z,17.30
2018-04-18T05:45:45.701Z,17.50
2018-04-18T05:48:13.042Z,17.30
2018-04-18T05:50:39.809Z,18.80
2018-04-18T05:53:06.555Z,20.60
2018-04-18T05:55:33.277Z,17.87
2018-04-18T05:58:00.007Z,20.37
2018-04-18T06:00:26.786Z,20.00
2018-04-18T06:02:53.523Z,23.03
2018-04-18T06:05:20.245Z,19.67
2018-04-18T06:07:46.979Z,19.20
2018-04-18T06:10:13.708Z,18.33
2018-04-18T06:12:40.443Z,20.33
2018-04-18T06:15:07.195Z,29.73
2018-04-18T06:17:33.927Z,23.20
2018-04-18T06:20:00.647Z,20.87
2018-04-18T06:22:27.376Z,20.53
2018-04-18T06:24:54.090Z,22.33
2018-04-18T06:27:20.816Z,24.27
2018-04-18T06:29:47.561Z,26.90
2018-04-18T06:32:14.350Z,22.53
2018-04-18T06:34:41.088Z,22.53
2018-04-18T06:37:07.812Z,23.93
2018-04-18T06:39:34.536Z,26.20
2018-04-18T06:42:01.262Z,22.43
2018-04-18T06:44:27.993Z,21.83
2018-04-18T06:46:54.731Z,22.33
2018-04-18T06:49:21.479Z,21.20
2018-04-18T06:51:48.200Z,22.10
2018-04-18T06:54:14.920Z,28.20
2018-04-18T06:56:41.657Z,30.77
2018-04-18T06:59:08.396Z,25.73
2018-04-18T07:01:35.111Z,22.33
2018-04-18T07:04:02.840Z,20.87
2018-04-18T07:06:29.665Z,22.63
2018-04-18T07:08:56.424Z,22.43
2018-04-18T07:11:23.160Z,22.03
2018-04-18T07:13:49.902Z,26.73
2018-04-18T07:16:16.634Z,20.00
2018-04-18T07:18:43.377Z,21.43
2018-04-18T07:21:10.110Z,21.50
2018-04-18T07:23:36.849Z,21.13
2018-04-18T07:26:03.584Z,21.70
2018-04-18T07:28:30.335Z,22.13
2018-04-18T07:30:57.062Z,27.30
2018-04-18T07:33:23.784Z,22.33
2018-04-18T07:35:50.503Z,22.00
2018-04-18T07:38:17.252Z,23.60
2018-04-18T07:40:44.039Z,20.07
2018-04-18T07:43:10.786Z,19.93
2018-04-18T07:45:37.518Z,18.17
2018-04-18T07:48:04.280Z,17.70
2018-04-18T07:50:31.033Z,17.50
2018-04-18T07:52:57.780Z,17.00
2018-04-18T07:55:24.515Z,20.00
2018-04-18T07:57:51.272Z,17.83
2018-04-18T08:00:18.014Z,17.30
2018-04-18T08:02:44.743Z,22.20
2018-04-18T08:05:11.468Z,19.17
2018-04-18T08:07:38.190Z,21.20
2018-04-18T08:10:04.919Z,19.57
2018-04-18T08:12:31.725Z,17.93
2018-04-18T08:14:58.499Z,17.03
2018-04-18T08:17:25.233Z,19.50
2018-04-18T08:19:51.990Z,24.80
2018-04-18T08:22:18.747Z,26.27
2018-04-18T08:24:45.530Z,17.43
2018-04-18T08:27:12.277Z,18.90
2018-04-18T08:29:39.010Z,20.60
2018-04-18T08:32:05.751Z,15.63
2018-04-18T08:34:32.471Z,17.23
2018-04-18T08:36:59.202Z,15.27
2018-04-18T08:39:25.943Z,15.57
2018-04-18T08:41:52.670Z,17.33
2018-04-18T08:44:19.416Z,16.43
2018-04-18T08:46:46.156Z,16.57
2018-04-18T08:49:12.926Z,15.03
2018-04-18T08:51:39.685Z,14.03
2018-04-18T08:54:06.457Z,15.13
2018-04-18T08:56:33.224Z,16.23
2018-04-18T08:59:00.026Z,14.07
2018-04-18T09:01:26.777Z,13.77
2018-04-18T09:03:53.512Z,14.33
2018-04-18T09:06:20.275Z,13.70
2018-04-18T09:08:47.000Z,14.00
2018-04-18T09:11:13.733Z,14.60
2018-04-18T09:13:40.452Z,11.80
2018-04-18T09:16:07.182Z,15.80
2018-04-18T09:18:33.923Z,13.77
2018-04-18T09:21:00.661Z,12.20
2018-04-18T09:23:27.389Z,13.83
2018-04-18T09:25:54.124Z,12.63
2018-04-18T09:28:20.889Z,13.97
2018-04-18T09:30:47.645Z,11.63
2018-04-18T09:33:14.366Z,13.70
2018-04-18T09:35:41.085Z,14.10
2018-04-18T09:38:07.878Z,12.10
2018-04-18T09:40:34.614Z,12.37
2018-04-18T09:43:01.353Z,13.83
2018-04-18T09:45:28.074Z,13.47
2018-04-18T09:47:54.814Z,12.37
2018-04-18T09:50:21.557Z,11.50
2018-04-18T09:52:48.301Z,12.47
2018-04-18T09:55:15.027Z,12.37
2018-04-18T09:57:41.792Z,15.67
2018-04-18T10:00:08.582Z,11.87
2018-04-18T10:02:37.116Z,13.63
2018-04-18T10:05:07.726Z,12.67
2018-04-18T10:07:34.457Z,12.27
2018-04-18T10:10:01.206Z,12.47
2018-04-18T10:12:27.948Z,12.83
2018-04-18T10:14:54.682Z,12.17
2018-04-18T10:17:21.458Z,11.07
2018-04-18T10:19:48.246Z,13.00
2018-04-18T10:22:14.991Z,12.90
2018-04-18T10:24:41.729Z,11.60
2018-04-18T10:27:08.462Z,10.50
2018-04-18T10:29:35.201Z,10.73
2018-04-18T10:32:01.920Z,11.10
2018-04-18T10:34:28.690Z,18.93
2018-04-18T10:36:55.458Z,11.83
2018-04-18T10:39:22.234Z,11.40
2018-04-18T10:41:49.008Z,11.17
2018-04-18T10:44:15.817Z,11.50
2018-04-18T10:46:42.578Z,10.10
2018-04-18T10:49:09.316Z,10.50
2018-04-18T10:51:36.056Z,10.20
2018-04-18T10:54:02.784Z,9.53
2018-04-18T10:56:29.523Z,9.53
2018-04-18T10:58:56.270Z,10.30
2018-04-18T11:01:22.986Z,9.70
2018-04-18T11:03:49.713Z,9.63
2018-04-18T11:06:16.448Z,9.60
2018-04-18T11:08:43.189Z,10.53
2018-04-18T11:11:09.937Z,9.60
2018-04-18T11:13:36.671Z,11.30
2018-04-18T11:16:03.435Z,10.37
2018-04-18T11:18:30.166Z,9.70
2018-04-18T11:20:56.922Z,8.97
2018-04-18T11:23:23.821Z,9.27
2018-04-18T11:25:50.571Z,11.60
2018-04-18T11:28:17.322Z,10.57
2018-04-18T11:30:44.043Z,9.47
2018-04-18T11:33:10.771Z,10.57
2018-04-18T11:35:37.504Z,8.70
2018-04-18T11:38:04.256Z,8.80
2018-04-18T11:40:31.052Z,10.20
2018-04-18T11:42:57.789Z,8.73
2018-04-18T11:45:24.647Z,9.83
2018-04-18T11:47:51.368Z,8.67
2018-04-18T11:50:18.112Z,10.60
2018-04-18T11:52:44.847Z,9.37
2018-04-18T11:55:11.600Z,10.43
2018-04-18T11:57:38.386Z,8.83
2018-04-18T12:00:05.129Z,9.53
2018-04-18T12:02:31.881Z,9.00
2018-04-18T12:04:58.637Z,13.90
2018-04-18T12:07:25.418Z,10.10
2018-04-18T12:09:52.214Z,10.00
2018-04-18T12:12:18.933Z,8.40
2018-04-18T12:14:45.728Z,9.63
2018-04-18T12:17:12.508Z,14.83
2018-04-18T12:19:39.264Z,12.53
2018-04-18T12:22:05.990Z,8.83
2018-04-18T12:24:32.725Z,8.37
2018-04-18T12:26:59.446Z,9.37
2018-04-18T12:29:26.175Z,8.03
2018-04-18T12:31:52.897Z,8.47
2018-04-18T12:34:19.610Z,9.93
2018-04-18T12:36:46.326Z,9.07
2018-04-18T12:39:13.070Z,8.17
2018-04-18T12:41:39.791Z,8.53
2018-04-18T12:44:06.509Z,8.80
2018-04-18T12:46:33.259Z,7.93
2018-04-18T12:49:00.031Z,13.70
2018-04-18T12:51:26.719Z,8.83
2018-04-18T12:53:53.436Z,10.13
2018-04-18T12:56:20.990Z,8.40
2018-04-18T12:58:47.808Z,7.93
2018-04-18T13:01:14.547Z,8.40
2018-04-18T13:03:41.290Z,8.73
2018-04-18T13:06:08.026Z,10.60
2018-04-18T13:08:34.757Z,10.90
2018-04-18T13:11:01.487Z,8.70
2018-04-18T13:13:28.233Z,9.10
2018-04-18T13:15:54.957Z,8.43
2018-04-18T13:18:21.735Z,7.80
2018-04-18T13:20:48.465Z,8.20
2018-04-18T13:23:15.226Z,8.43
2018-04-18T13:25:41.984Z,9.50
2018-04-18T13:28:08.699Z,12.20
2018-04-18T13:30:35.419Z,8.43
2018-04-18T13:33:02.142Z,8.13
2018-04-18T13:35:28.863Z,7.90
2018-04-18T13:37:55.632Z,7.90
2018-04-18T13:40:22.374Z,7.73
2018-04-18T13:42:49.131Z,8.97
2018-04-18T13:45:16.038Z,11.20
2018-04-18T13:47:42.801Z,10.40
2018-04-18T13:50:09.526Z,10.43
2018-04-18T13:52:36.237Z,10.43
2018-04-18T13:55:03.001Z,9.87
2018-04-18T13:57:29.786Z,8.00
2018-04-18T13:59:56.501Z,7.20
2018-04-18T14:02:23.218Z,11.63
2018-04-18T14:04:49.971Z,11.80
2018-04-18T14:07:16.684Z,7.53
2018-04-18T14:09:43.396Z,7.80
2018-04-18T14:12:10.128Z,8.07
2018-04-18T14:14:36.852Z,7.07
2018-04-18T14:17:03.618Z,11.40
2018-04-18T14:19:30.366Z,7.90
2018-04-18T14:21:57.102Z,7.00
2018-04-18T14:24:23.824Z,7.47
2018-04-18T14:26:50.544Z,7.50
2018-04-18T14:29:17.295Z,9.37
2018-04-18T14:31:44.022Z,8.17
2018-04-18T14:34:10.748Z,8.13
2018-04-18T14:36:37.470Z,6.43
2018-04-18T14:39:04.253Z,7.20
2018-04-18T14:41:30.981Z,7.23
2018-04-18T14:43:57.698Z,6.40
2018-04-18T14:46:24.465Z,9.83
2018-04-18T14:48:52.095Z,9.03
2018-04-18T14:51:18.828Z,9.63
2018-04-18T14:53:45.551Z,6.73
2018-04-18T14:56:12.276Z,7.20
2018-04-18T14:58:39.234Z,6.93
2018-04-18T15:01:05.957Z,6.83
2018-04-18T15:03:32.717Z,6.57
2018-04-18T15:05:59.811Z,7.57
2018-04-18T15:08:27.446Z,10.83
2018-04-18T15:10:54.193Z,6.73
2018-04-18T15:13:20.956Z,5.77
2018-04-18T15:15:55.736Z,6.07
2018-04-18T15:18:24.185Z,8.17
2018-04-18T15:23:53.193Z,6.03
2018-04-18T15:26:21.901Z,6.10
2018-04-18T15:28:54.119Z,11.37
2018-04-18T15:31:20.876Z,7.23
2018-04-18T15:33:49.701Z,6.20
2018-04-18T15:36:24.817Z,6.10
2018-04-18T15:38:51.584Z,6.90
2018-04-18T15:41:18.338Z,11.50
2018-04-18T15:43:45.081Z,5.97
2018-04-18T15:46:11.817Z,6.10
2018-04-18T15:48:38.572Z,5.77
2018-04-18T15:51:05.329Z,8.10
2018-04-18T15:53:32.092Z,7.00
2018-04-18T15:55:58.850Z,5.80
2018-04-18T15:58:25.577Z,4.90
2018-04-18T16:00:52.302Z,6.70
2018-04-18T16:03:19.030Z,7.60
2018-04-18T16:05:45.777Z,6.83
2018-04-18T16:08:12.514Z,7.57
2018-04-18T16:10:39.357Z,4.93
2018-04-18T16:13:06.101Z,7.63
2018-04-18T16:15:32.850Z,8.07
2018-04-18T16:17:59.589Z,7.50
2018-04-18T16:20:26.323Z,6.97
2018-04-18T16:22:53.081Z,5.43
2018-04-18T16:25:19.843Z,5.77
2018-04-18T16:27:46.578Z,5.13
2018-04-18T16:30:19.207Z,6.30
2018-04-18T16:32:45.968Z,5.57
2018-04-18T16:35:12.700Z,6.40
2018-04-18T16:37:39.447Z,5.70
2018-04-18T16:40:06.167Z,6.77
2018-04-18T16:42:32.995Z,6.60
2018-04-18T16:44:59.797Z,9.93
2018-04-18T16:47:26.671Z,7.10
2018-04-18T16:49:53.407Z,7.00
2018-04-18T16:52:20.207Z,11.60
2018-04-18T16:54:47.157Z,6.87
2018-04-18T16:57:13.933Z,7.60
2018-04-18T16:59:40.669Z,12.37
2018-04-18T17:02:07.416Z,10.00
2018-04-18T17:04:34.630Z,9.73
2018-04-18T17:07:01.467Z,12.10
2018-04-18T17:09:28.218Z,9.43
2018-04-18T17:11:55.005Z,10.07
2018-04-18T17:14:21.837Z,9.00
2018-04-18T17:16:48.646Z,14.50
2018-04-18T17:19:15.430Z,8.53
2018-04-18T17:21:42.206Z,5.03
2018-04-18T17:24:08.951Z,12.13
2018-04-18T17:26:35.690Z,5.03
2018-04-18T17:29:02.537Z,5.83
2018-04-18T17:31:29.330Z,11.93
2018-04-18T17:33:56.249Z,5.33
2018-04-18T17:36:22.998Z,5.80
2018-04-18T17:38:49.775Z,6.17
2018-04-18T17:41:16.551Z,9.40
2018-04-18T17:43:43.447Z,6.67
2018-04-18T17:46:10.351Z,6.50
2018-04-18T17:48:37.290Z,9.70
2018-04-18T17:51:04.192Z,6.00
2018-04-18T17:53:31.081Z,8.53
2018-04-18T17:55:57.865Z,8.00
2018-04-18T17:58:25.475Z,8.50
2018-04-18T18:00:52.253Z,7.70
2018-04-18T18:03:19.161Z,10.97
2018-04-18T18:05:46.144Z,6.73
2018-04-18T18:08:12.984Z,9.87
2018-04-18T18:10:39.789Z,14.00
2018-04-18T18:13:06.568Z,6.43
2018-04-18T18:15:33.343Z,7.03
2018-04-18T18:18:00.128Z,8.27
2018-04-18T18:20:26.896Z,5.67
2018-04-18T18:22:53.714Z,9.57
2018-04-18T18:25:20.586Z,12.03
2018-04-18T18:27:47.359Z,7.10
2018-04-18T18:30:14.337Z,10.43
2018-04-18T18:32:41.159Z,7.43
2018-04-18T18:35:07.974Z,6.67
2018-04-18T18:37:34.748Z,7.03
2018-04-18T18:40:01.483Z,6.00
2018-04-18T18:42:29.135Z,7.80
2018-04-18T18:44:55.886Z,7.97
2018-04-18T18:47:22.644Z,6.83
2018-04-18T18:49:49.437Z,7.07
2018-04-18T18:52:16.161Z,7.03
2018-04-18T18:54:42.887Z,6.53
2018-04-18T18:57:09.615Z,5.90
2018-04-18T18:59:36.389Z,15.13
2018-04-18T19:02:03.120Z,6.60
2018-04-18T19:04:29.860Z,9.23
2018-04-18T19:06:56.584Z,8.80
2018-04-18T19:09:23.302Z,8.67
2018-04-18T19:11:50.034Z,9.67
2018-04-18T19:14:16.754Z,12.47
2018-04-18T19:16:43.485Z,7.53
2018-04-18T19:19:10.228Z,9.13
2018-04-18T19:21:36.964Z,6.17
2018-04-18T19:24:03.696Z,10.30
2018-04-18T19:26:30.435Z,9.00
2018-04-18T19:28:57.164Z,6.20
2018-04-18T19:31:23.920Z,11.73
2018-04-18T19:33:50.730Z,7.17
2018-04-18T19:36:17.457Z,6.50
2018-04-18T19:38:44.230Z,8.23
2018-04-18T19:41:10.951Z,6.90
2018-04-18T19:43:37.722Z,7.70
2018-04-18T19:46:04.490Z,6.67
2018-04-18T19:48:31.262Z,9.73
2018-04-18T19:50:58.182Z,7.57
2018-04-18T19:53:25.479Z,7.57
2018-04-18T19:55:52.247Z,7.43
2018-04-18T19:58:20.724Z,9.00
2018-04-18T20:00:47.598Z,7.17
2018-04-18T20:03:14.373Z,7.63
2018-04-18T20:05:41.180Z,8.10
2018-04-18T20:08:07.966Z,8.63
2018-04-18T20:10:34.726Z,8.07
2018-04-18T20:13:01.523Z,9.43
2018-04-18T20:15:28.271Z,8.97
2018-04-18T20:17:55.049Z,7.57
2018-04-18T20:20:21.814Z,7.87
2018-04-18T20:22:48.555Z,9.47
2018-04-18T20:25:15.518Z,9.63
2018-04-18T20:27:42.251Z,6.60
2018-04-18T20:30:09.014Z,7.90
2018-04-18T20:32:35.769Z,9.20
2018-04-18T20:35:02.509Z,14.43
2018-04-18T20:37:29.251Z,10.63
2018-04-18T20:39:55.997Z,8.43
2018-04-18T20:42:22.730Z,7.60
2018-04-18T20:44:49.509Z,14.53
2018-04-18T20:47:16.239Z,8.37
2018-04-18T20:49:42.986Z,8.40
2018-04-18T20:52:09.731Z,8.93
2018-04-18T20:54:36.609Z,8.60
2018-04-18T20:57:03.380Z,12.83
2018-04-18T20:59:30.114Z,9.10
2018-04-18T21:01:56.880Z,10.67
2018-04-18T21:04:23.625Z,9.20
2018-04-18T21:06:50.362Z,10.10
2018-04-18T21:09:17.101Z,9.63
2018-04-18T21:11:43.842Z,11.00
2018-04-18T21:14:10.576Z,11.53
2018-04-18T21:16:37.312Z,13.30
2018-04-18T21:19:04.037Z,8.80
2018-04-18T21:21:30.789Z,9.40
2018-04-18T21:23:57.548Z,9.20
2018-04-18T21:26:24.286Z,9.00
2018-04-18T21:28:51.057Z,8.87
2018-04-18T21:31:17.786Z,10.37
2018-04-18T21:33:44.529Z,8.57
2018-04-18T21:36:11.256Z,11.80
2018-04-18T21:38:38.004Z,9.43
2018-04-18T21:41:04.817Z,9.13
2018-04-18T21:43:31.555Z,10.00
2018-04-18T21:45:58.293Z,11.33
2018-04-18T21:48:25.025Z,8.47
2018-04-18T21:50:51.774Z,8.60
2018-04-18T21:53:18.520Z,9.63
2018-04-18T21:55:45.252Z,10.97
2018-04-18T21:58:11.974Z,8.83
2018-04-18T22:00:38.761Z,10.77
2018-04-18T22:03:05.481Z,11.97
2018-04-18T22:05:32.221Z,11.63
2018-04-18T22:07:59.013Z,10.80
2018-04-18T22:10:25.753Z,19.13
2018-04-18T22:12:52.493Z,12.47
2018-04-18T22:15:19.214Z,9.33
2018-04-18T22:17:46.022Z,11.23
2018-04-18T22:20:12.762Z,9.27
2018-04-18T22:22:39.485Z,10.67
2018-04-18T22:25:06.218Z,11.70
2018-04-18T22:27:32.942Z,9.73
2018-04-18T22:29:59.687Z,9.53
2018-04-18T22:32:26.422Z,9.80
2018-04-18T22:34:53.142Z,10.40
2018-04-18T22:37:19.860Z,10.00
2018-04-18T22:39:46.595Z,13.67
2018-04-18T22:42:13.331Z,12.37
2018-04-18T22:44:40.078Z,10.63
2018-04-18T22:47:06.833Z,11.67
2018-04-18T22:49:33.577Z,11.30
2018-04-18T22:52:00.320Z,10.40
2018-04-18T22:54:27.044Z,12.50
2018-04-18T22:56:53.797Z,9.90
2018-04-18T22:59:20.543Z,10.67
2018-04-18T23:01:47.282Z,10.33
2018-04-18T23:04:14.004Z,9.83
2018-04-18T23:06:40.737Z,9.63
2018-04-18T23:09:07.488Z,9.53
2018-04-18T23:11:34.211Z,9.33
2018-04-18T23:14:00.944Z,11.23
2018-04-18T23:16:27.735Z,10.60
2018-04-18T23:18:54.510Z,10.37
2018-04-18T23:21:22.184Z,9.70
2018-04-18T23:23:48.920Z,10.00
2018-04-18T23:26:15.649Z,10.30
2018-04-18T23:28:42.366Z,9.70
2018-04-18T23:31:09.099Z,10.17
2018-04-18T23:33:35.835Z,10.77
2018-04-18T23:36:02.577Z,11.80
2018-04-18T23:38:29.316Z,11.17
2018-04-18T23:40:56.050Z,10.40
2018-04-18T23:43:22.796Z,10.53
2018-04-18T23:45:49.518Z,10.60
2018-04-18T23:48:16.280Z,8.80
2018-04-18T23:50:43.006Z,10.70
2018-04-18T23:53:09.773Z,11.07
2018-04-18T23:55:36.502Z,11.70
2018-04-18T23:58:03.251Z,10.33
